Time;durP1;ratioP1;P1;durP2;ratioP2;P2;SDS_P1;SDS_P2;PMS_P1;PMS_P2;Temp;Humidity;BMP_temperature;BMP_pressure;BME280_temperature;BME280_humidity;BME280_pressure;Samples;Min_cycle;Max_cycle;Signal;HPM_P1;HPM_P2
2021/03/31 00:02:14;;;;;;;8.05;4.03;;;13.20;99.90;;;;;;4998206;28;20033;-56
2021/03/31 00:04:40;;;;;;;7.70;4.45;;;13.30;99.90;;;;;;5031372;28;20079;-52
2021/03/31 00:07:08;;;;;;;10.90;5.05;;;13.50;99.90;;;;;;5012490;28;20029;-51
2021/03/31 00:09:34;;;;;;;6.82;4.53;;;13.40;99.90;;;;;;5053549;28;20109;-51
2021/03/31 00:12:00;;;;;;;8.52;4.35;;;13.30;99.90;;;;;;5034721;28;20439;-55
2021/03/31 00:14:26;;;;;;;7.63;4.45;;;13.30;99.90;;;;;;5053122;28;20120;-48
2021/03/31 00:16:51;;;;;;;7.15;4.20;;;13.30;99.90;;;;;;5053350;28;20039;-52
2021/03/31 00:19:18;;;;;;;6.22;4.35;;;13.30;99.90;;;;;;5034394;28;20377;-57
2021/03/31 00:21:44;;;;;;;7.50;4.70;;;13.30;99.90;;;;;;5070017;28;20025;-55
2021/03/31 00:24:10;;;;;;;9.45;4.13;;;13.10;99.90;;;;;;5073123;28;20035;-56
2021/03/31 00:26:36;;;;;;;6.72;4.10;;;13.10;99.90;;;;;;5072938;28;20418;-48
2021/03/31 00:29:02;;;;;;;9.02;5.30;;;13.10;99.90;;;;;;5054487;28;20049;-56
2021/03/31 00:31:28;;;;;;;7.82;4.72;;;12.80;99.90;;;;;;5073202;28;20048;-57
2021/03/31 00:33:53;;;;;;;10.30;5.65;;;12.90;99.90;;;;;;5073514;28;20467;-50
2021/03/31 00:36:19;;;;;;;10.07;6.40;;;12.50;99.90;;;;;;5072810;28;20036;-57
2021/03/31 00:38:45;;;;;;;11.23;6.50;;;12.20;99.90;;;;;;5021297;28;20433;-49
2021/03/31 00:41:11;;;;;;;11.27;6.63;;;12.20;99.90;;;;;;5037610;28;20040;-51
2021/03/31 00:43:37;;;;;;;8.90;5.85;;;12.40;99.90;;;;;;5072941;28;20039;-57
2021/03/31 00:46:03;;;;;;;10.23;5.75;;;12.20;99.90;;;;;;5072943;28;20024;-51
2021/03/31 00:48:29;;;;;;;9.93;5.72;;;;;;;;;;5054276;28;20040;-48
2021/03/31 00:50:58;;;;;;;11.90;6.57;;;11.20;99.90;;;;;;5075368;28;20043;-51
2021/03/31 00:53:37;;;;;;;10.65;5.70;;;11.20;99.90;;;;;;5074817;28;20040;-54
2021/03/31 00:56:05;;;;;;;9.77;5.68;;;11.30;99.90;;;;;;5076957;28;20037;-55
2021/03/31 00:58:31;;;;;;;16.70;4.78;;;11.30;99.90;;;;;;5076650;28;20028;-50
2021/03/31 01:00:57;;;;;;;9.38;4.90;;;11.30;99.90;;;;;;5076702;28;20107;-54
2021/03/31 01:03:23;;;;;;;9.32;5.25;;;11.20;99.90;;;;;;5076630;28;20060;-55
2021/03/31 01:05:49;;;;;;;6.20;4.70;;;11.20;99.90;;;;;;5076517;28;20375;-53
2021/03/31 01:08:14;;;;;;;8.25;5.05;;;11.20;99.90;;;;;;5057855;28;20132;-54
2021/03/31 01:10:44;;;;;;;8.38;5.07;;;11.00;99.90;;;;;;5076426;28;20020;-48
2021/03/31 01:13:28;;;;;;;8.52;4.80;;;10.90;99.90;;;;;;5074377;28;20471;-58
2021/03/31 01:16:05;;;;;;;11.45;4.57;;;10.90;99.90;;;;;;5076528;28;20104;-52
2021/03/31 01:18:54;;;;;;;8.23;4.13;;;11.10;99.90;;;;;;5076163;28;20053;-58
2021/03/31 01:21:57;;;;;;;8.48;4.18;;;11.40;99.90;;;;;;5074939;28;20036;-55
2021/03/31 01:24:42;;;;;;;9.07;4.60;;;;;;;;;;5075085;28;20039;-54
2021/03/31 01:27:17;;;;;;;7.80;4.40;;;11.50;99.90;;;;;;5076077;28;20078;-54
2021/03/31 01:30:02;;;;;;;8.77;4.53;;;;;;;;;;5076066;28;20032;-51
2021/03/31 01:32:34;;;;;;;8.77;4.82;;;;;;;;;;5076280;28;20085;-46
2021/03/31 01:35:29;;;;;;;10.90;5.28;;;;;;;;;;5075920;28;20521;-47
2021/03/31 01:38:00;;;;;;;10.98;5.63;;;11.70;99.90;;;;;;5014120;28;20543;-47
2021/03/31 01:40:27;;;;;;;10.50;5.10;;;11.70;99.90;;;;;;5014126;28;20038;-59
2021/03/31 01:43:12;;;;;;;10.75;5.20;;;;;;;;;;5013562;28;20516;-54
2021/03/31 01:45:40;;;;;;;9.02;5.70;;;11.70;99.90;;;;;;5013901;28;20026;-53
2021/03/31 01:48:10;;;;;;;11.23;6.10;;;11.70;99.90;;;;;;5013618;28;20038;-57
2021/03/31 01:50:38;;;;;;;8.68;5.40;;;11.90;99.90;;;;;;5013734;28;20065;-54
2021/03/31 01:53:06;;;;;;;9.77;5.50;;;11.70;99.90;;;;;;5013985;28;20030;-54
2021/03/31 01:55:32;;;;;;;12.25;5.72;;;;;;;;;;4980872;28;20088;-52
2021/03/31 01:57:59;;;;;;;10.63;5.28;;;;;;;;;;5013599;28;20061;-55
2021/03/31 02:00:26;;;;;;;10.43;5.28;;;;;;;;;;5013210;28;20034;-55
2021/03/31 02:02:55;;;;;;;9.02;5.43;;;;;;;;;;4997087;28;20050;-53
2021/03/31 02:05:25;;;;;;;12.65;6.72;;;;;;;;;;5013341;28;20133;-49
2021/03/31 02:07:51;;;;;;;9.40;5.63;;;;;;;;;;5013305;28;20121;-52
2021/03/31 02:10:20;;;;;;;8.05;4.32;;;11.80;99.90;;;;;;5013371;28;20069;-56
2021/03/31 02:12:46;;;;;;;7.63;4.90;;;11.70;99.90;;;;;;5013172;28;20034;-48
2021/03/31 02:15:17;;;;;;;7.20;4.70;;;11.70;99.90;;;;;;5067899;28;20051;-58
2021/03/31 02:17:43;;;;;;;6.30;4.28;;;11.80;99.90;;;;;;5075002;28;20060;-56
2021/03/31 02:20:10;;;;;;;7.53;4.55;;;;;;;;;;5073910;28;20028;-54
2021/03/31 02:22:36;;;;;;;12.13;5.15;;;;;;;;;;5074944;28;20115;-54
2021/03/31 02:25:04;;;;;;;8.00;4.38;;;;;;;;;;5074902;28;20759;-54
2021/03/31 02:27:30;;;;;;;6.47;4.47;;;11.90;99.90;;;;;;5072855;28;20128;-58
2021/03/31 02:29:56;;;;;;;9.30;4.80;;;11.90;99.90;;;;;;5074882;28;20063;-49
2021/03/31 02:32:23;;;;;;;9.10;4.90;;;11.90;99.90;;;;;;5074895;28;20052;-49
2021/03/31 02:34:52;;;;;;;9.02;4.60;;;11.80;99.90;;;;;;5074620;28;20689;-52
2021/03/31 02:37:19;;;;;;;6.00;4.03;;;11.80;99.90;;;;;;5056069;28;20044;-51
2021/03/31 02:39:47;;;;;;;7.82;4.32;;;11.70;99.90;;;;;;5074949;28;20025;-59
2021/03/31 02:42:16;;;;;;;8.82;4.53;;;11.70;99.90;;;;;;5039241;28;20622;-52
2021/03/31 02:44:45;;;;;;;8.93;4.15;;;11.80;99.90;;;;;;5074770;28;20028;-56
2021/03/31 02:47:14;;;;;;;5.90;4.15;;;11.80;99.90;;;;;;5072457;28;20047;-50
2021/03/31 02:49:42;;;;;;;7.95;4.35;;;11.80;99.90;;;;;;5074518;28;20028;-51
2021/03/31 02:52:09;;;;;;;7.60;4.55;;;11.80;99.90;;;;;;5074022;28;20024;-60
2021/03/31 02:54:35;;;;;;;9.60;4.68;;;11.70;99.90;;;;;;5074499;28;20058;-56
2021/03/31 02:57:01;;;;;;;8.88;4.38;;;11.60;99.90;;;;;;5074101;28;20024;-47
2021/03/31 02:59:27;;;;;;;8.30;4.80;;;11.70;99.90;;;;;;5074432;28;20489;-55
2021/03/31 03:01:54;;;;;;;9.35;4.15;;;11.60;99.90;;;;;;5055668;28;20040;-59
2021/03/31 03:04:21;;;;;;;8.80;4.93;;;11.70;99.90;;;;;;5074126;28;20012;-56
2021/03/31 03:06:47;;;;;;;9.88;4.97;;;11.70;99.90;;;;;;5074117;28;20406;-60
2021/03/31 03:09:15;;;;;;;8.25;4.70;;;11.60;99.90;;;;;;5072184;28;20163;-51
2021/03/31 03:11:42;;;;;;;9.07;4.75;;;11.60;99.90;;;;;;5074216;28;20029;-50
2021/03/31 03:14:09;;;;;;;9.18;5.38;;;;;;;;;;5073414;28;20029;-51
2021/03/31 03:16:35;;;;;;;13.35;5.55;;;11.30;99.90;;;;;;5074068;28;20071;-57
2021/03/31 03:19:01;;;;;;;8.93;4.75;;;11.00;99.90;;;;;;5055015;28;20057;-56
2021/03/31 03:21:31;;;;;;;8.02;5.55;;;10.90;99.90;;;;;;5004338;28;20036;-48
2021/03/31 03:23:57;;;;;;;14.50;6.22;;;11.10;99.90;;;;;;5073843;28;20074;-54
2021/03/31 03:26:24;;;;;;;12.73;6.70;;;11.10;99.90;;;;;;5073543;28;20082;-50
2021/03/31 03:28:50;;;;;;;12.30;6.45;;;11.20;99.90;;;;;;5073594;28;20029;-54
2021/03/31 03:31:16;;;;;;;11.05;6.70;;;11.30;99.90;;;;;;5073708;28;20024;-54
2021/03/31 03:33:43;;;;;;;12.25;6.63;;;11.30;99.90;;;;;;5073820;28;20372;-57
2021/03/31 03:36:11;;;;;;;10.27;5.90;;;11.30;99.90;;;;;;5073519;28;20035;-57
2021/03/31 03:38:38;;;;;;;12.13;5.80;;;11.30;99.90;;;;;;5073844;28;20373;-59
2021/03/31 03:41:09;;;;;;;13.93;6.53;;;11.30;99.90;;;;;;5073729;28;20025;-54
2021/03/31 03:43:38;;;;;;;10.23;5.75;;;11.30;99.90;;;;;;5073678;28;20025;-55
2021/03/31 03:46:06;;;;;;;9.85;6.00;;;11.30;99.90;;;;;;5073607;28;20033;-51
2021/03/31 03:48:32;;;;;;;13.45;6.43;;;11.30;99.90;;;;;;5071337;28;20598;-52
2021/03/31 03:50:58;;;;;;;14.77;6.35;;;11.30;99.90;;;;;;5073670;28;20115;-50
2021/03/31 03:53:28;;;;;;;13.00;6.45;;;11.30;99.90;;;;;;5054759;28;20040;-57
2021/03/31 03:55:56;;;;;;;10.35;5.80;;;11.30;99.90;;;;;;5073235;28;20207;-51
2021/03/31 03:58:24;;;;;;;10.80;5.68;;;11.20;99.90;;;;;;5073403;28;20020;-51
2021/03/31 04:00:49;;;;;;;10.88;5.45;;;11.10;99.90;;;;;;5073325;28;20111;-54
2021/03/31 04:03:15;;;;;;;7.97;6.28;;;10.90;99.90;;;;;;5073203;28;20060;-57
2021/03/31 04:05:41;;;;;;;12.88;6.75;;;10.90;99.90;;;;;;5071767;28;20082;-55
2021/03/31 04:08:09;;;;;;;16.10;7.25;;;14.20;99.90;;;;;;5071251;28;20045;-53
2021/03/31 04:10:35;;;;;;;11.80;6.63;;;10.80;99.90;;;;;;5073250;28;20032;-56
2021/03/31 04:13:02;;;;;;;13.70;6.95;;;11.10;99.90;;;;;;5073399;28;20052;-51
2021/03/31 04:15:30;;;;;;;11.68;7.10;;;11.10;99.90;;;;;;5073272;28;20020;-53
2021/03/31 04:18:00;;;;;;;13.13;6.82;;;11.10;99.90;;;;;;5073172;28;20098;-55
2021/03/31 04:20:26;;;;;;;11.75;7.47;;;11.20;99.90;;;;;;5070517;28;20029;-59
2021/03/31 04:22:52;;;;;;;15.32;7.03;;;11.10;99.90;;;;;;5071259;28;20028;-55
2021/03/31 04:25:20;;;;;;;10.98;7.18;;;11.10;99.90;;;;;;5076076;28;20060;-51
2021/03/31 04:27:48;;;;;;;13.25;7.13;;;11.10;99.90;;;;;;5077402;28;20118;-50
2021/03/31 04:30:15;;;;;;;11.23;6.53;;;11.20;99.90;;;;;;5076850;28;20039;-49
2021/03/31 04:32:44;;;;;;;13.38;6.88;;;11.30;99.90;;;;;;5057737;28;20040;-51
2021/03/31 04:35:11;;;;;;;15.23;6.88;;;11.30;99.90;;;;;;5058340;28;20037;-54
2021/03/31 04:37:39;;;;;;;10.75;7.32;;;11.40;99.90;;;;;;5058649;28;20367;-59
2021/03/31 04:40:09;;;;;;;14.40;6.95;;;11.40;99.90;;;;;;5077205;28;20075;-54
2021/03/31 04:42:35;;;;;;;10.93;6.45;;;11.40;99.90;;;;;;5075083;28;20032;-50
2021/03/31 04:45:01;;;;;;;10.32;6.78;;;11.50;99.90;;;;;;5076773;28;20032;-52
2021/03/31 04:47:27;;;;;;;9.63;5.63;;;11.40;99.90;;;;;;5076624;28;20067;-50
2021/03/31 04:49:53;;;;;;;13.63;6.88;;;11.30;99.90;;;;;;5077153;28;20056;-47
2021/03/31 04:52:19;;;;;;;16.48;8.85;;;11.40;99.90;;;;;;5071715;28;20025;-58
2021/03/31 04:54:44;;;;;;;16.48;8.38;;;11.40;99.90;;;;;;5056549;28;20032;-61
2021/03/31 04:57:10;;;;;;;12.68;7.22;;;11.50;99.90;;;;;;5055949;28;20078;-49
2021/03/31 04:59:36;;;;;;;13.73;6.35;;;11.60;99.90;;;;;;5058153;28;20056;-53
2021/03/31 05:02:02;;;;;;;11.23;7.03;;;11.70;99.90;;;;;;5074864;28;20029;-56
2021/03/31 05:04:28;;;;;;;15.50;7.45;;;11.80;99.90;;;;;;5040381;28;20460;-52
2021/03/31 05:06:53;;;;;;;11.00;6.28;;;11.80;99.90;;;;;;5075064;28;20159;-47
2021/03/31 05:09:19;;;;;;;12.07;6.90;;;12.00;99.90;;;;;;5076317;28;20032;-54
2021/03/31 05:11:45;;;;;;;12.43;6.80;;;12.10;99.90;;;;;;5076229;28;20032;-51
2021/03/31 05:14:10;;;;;;;14.70;7.22;;;12.20;99.90;;;;;;5076577;28;20383;-58
2021/03/31 05:16:36;;;;;;;14.50;6.57;;;12.30;99.90;;;;;;5057527;28;20032;-51
2021/03/31 05:19:02;;;;;;;12.95;6.15;;;12.30;99.90;;;;;;5057311;28;20052;-45
2021/03/31 05:21:28;;;;;;;13.73;7.40;;;;;;;;;;5057579;28;20037;-56
2021/03/31 05:23:54;;;;;;;13.25;8.13;;;;;;;;;;5076291;28;20056;-54
2021/03/31 05:26:20;;;;;;;11.30;7.55;;;;;;;;;;5073881;28;20078;-53
2021/03/31 05:28:46;;;;;;;12.20;6.45;;;12.80;99.90;;;;;;5075703;28;20044;-55
2021/03/31 05:31:12;;;;;;;14.82;8.02;;;13.00;99.90;;;;;;5076164;28;20103;-56
2021/03/31 05:33:38;;;;;;;15.40;8.23;;;13.10;99.90;;;;;;5076208;28;20024;-47
2021/03/31 05:36:04;;;;;;;13.68;7.88;;;;;;;;;;5075139;28;20032;-46
2021/03/31 05:38:30;;;;;;;13.48;7.88;;;;;;;;;;5040722;28;20463;-46
2021/03/31 05:40:59;;;;;;;13.73;7.68;;;13.10;99.90;;;;;;5073443;28;20031;-47
2021/03/31 05:43:26;;;;;;;11.98;8.20;;;;;;;;;;5067097;28;20025;-46
2021/03/31 05:45:55;;;;;;;11.65;7.75;;;;;;;;;;5064088;28;20044;-46
2021/03/31 05:48:22;;;;;;;14.40;7.65;;;;;;;;;;5064318;28;20037;-47
2021/03/31 05:50:48;;;;;;;15.40;8.73;;;;;;;;;;5063258;28;20060;-45
2021/03/31 05:53:14;;;;;;;12.50;7.88;;;;;;;;;;5066153;28;20028;-42
2021/03/31 05:55:40;;;;;;;20.92;10.15;;;;;;;;;;5064241;28;20025;-44
2021/03/31 05:58:07;;;;;;;17.35;9.77;;;13.30;99.90;;;;;;5070717;28;20039;-46
2021/03/31 06:00:33;;;;;;;17.60;10.10;;;13.00;99.90;;;;;;5075689;28;20020;-46
2021/03/31 06:03:03;;;;;;;20.42;10.35;;;;;;;;;;5065126;28;20071;-45
2021/03/31 06:05:30;;;;;;;16.00;9.40;;;12.60;99.90;;;;;;5055564;28;20479;-48
2021/03/31 06:07:56;;;;;;;15.43;8.95;;;12.60;99.90;;;;;;5037162;28;20045;-45
2021/03/31 06:10:23;;;;;;;15.68;9.75;;;12.70;99.90;;;;;;5055531;28;20032;-47
2021/03/31 06:12:54;;;;;;;16.48;9.45;;;13.00;99.90;;;;;;5055240;28;20025;-46
2021/03/31 06:15:32;;;;;;;14.52;9.15;;;13.00;99.90;;;;;;5054493;28;20506;-45
2021/03/31 06:18:00;;;;;;;17.77;9.93;;;;;;;;;;5054937;28;20060;-46
2021/03/31 06:20:56;;;;;;;14.35;9.32;;;13.70;99.90;;;;;;5055118;28;20068;-47
2021/03/31 06:26:27;;;;;;;14.27;9.38;;;13.80;99.90;;;;;;5072126;28;20450;-47
2021/03/31 06:29:01;;;;;;;15.60;9.52;;;14.00;99.90;;;;;;5074718;28;20064;-45
2021/03/31 06:31:31;;;;;;;18.10;9.63;;;14.10;99.90;;;;;;5072787;28;20036;-47
2021/03/31 06:34:04;;;;;;;18.30;10.57;;;14.20;99.90;;;;;;5039664;28;20032;-46
2021/03/31 06:36:36;;;;;;;20.80;11.38;;;14.30;99.90;;;;;;5071664;28;20032;-47
2021/03/31 06:39:16;;;;;;;28.00;14.07;;;14.30;99.90;;;;;;5054656;28;20040;-46
2021/03/31 06:42:12;;;;;;;22.42;12.50;;;14.30;99.90;;;;;;5036025;28;20270;-47
2021/03/31 06:49:42;;;;;;;41.08;20.45;;;14.40;99.90;;;;;;5073006;28;20468;-47
2021/03/31 06:52:11;;;;;;;29.00;18.08;;;14.40;99.90;;;;;;5073811;28;20024;-47
2021/03/31 06:54:42;;;;;;;30.27;17.15;;;14.40;99.90;;;;;;5063424;28;20025;-46
2021/03/31 06:57:08;;;;;;;26.67;17.25;;;14.50;99.90;;;;;;5054473;28;20041;-46
2021/03/31 06:59:34;;;;;;;27.13;17.80;;;14.60;99.90;;;;;;5035773;28;20124;-47
2021/03/31 07:02:02;;;;;;;29.27;17.52;;;14.50;99.90;;;;;;5054074;28;20100;-47
2021/03/31 07:04:30;;;;;;;31.55;19.13;;;14.40;99.90;;;;;;5035793;28;20036;-47
2021/03/31 07:07:09;;;;;;;25.95;15.38;;;14.50;99.90;;;;;;5054361;28;20078;-44
2021/03/31 07:09:38;;;;;;;28.20;15.90;;;14.40;99.90;;;;;;5053945;28;20479;-44
2021/03/31 07:12:23;;;;;;;23.02;14.63;;;14.40;99.90;;;;;;5054196;28;20162;-46
2021/03/31 07:14:50;;;;;;;20.15;14.27;;;;;;;;;;5054087;28;20067;-46
2021/03/31 07:17:27;;;;;;;22.65;13.35;;;14.70;99.90;;;;;;5053490;28;20036;-45
2021/03/31 07:19:53;;;;;;;20.45;12.40;;;15.10;99.90;;;;;;5054067;28;20090;-45
2021/03/31 07:22:20;;;;;;;21.30;13.88;;;15.20;99.90;;;;;;5054004;28;20494;-46
2021/03/31 07:24:46;;;;;;;24.92;15.85;;;15.30;99.90;;;;;;5053843;28;20363;-46
2021/03/31 07:27:17;;;;;;;29.17;18.92;;;15.30;99.90;;;;;;5035246;28;20060;-47
2021/03/31 07:32:54;;;;;;;27.33;15.85;;;16.00;99.90;;;;;;5072985;28;20124;-46
2021/03/31 07:35:22;;;;;;;17.85;11.93;;;16.00;99.90;;;;;;5073679;28;20422;-47
2021/03/31 07:37:49;;;;;;;18.13;11.07;;;16.10;99.90;;;;;;5054820;28;20044;-47
2021/03/31 07:40:17;;;;;;;23.35;11.40;;;16.30;99.90;;;;;;5066231;28;20045;-46
2021/03/31 07:43:21;;;;;;;15.73;10.70;;;16.10;99.90;;;;;;5053034;28;20133;-47
2021/03/31 07:46:02;;;;;;;16.85;11.10;;;16.10;99.90;;;;;;5053168;28;20037;-44
2021/03/31 07:48:29;;;;;;;20.92;10.15;;;16.10;99.90;;;;;;5052258;28;20037;-45
2021/03/31 07:50:55;;;;;;;20.88;11.25;;;16.30;99.90;;;;;;5053600;28;20440;-44
2021/03/31 07:53:23;;;;;;;20.17;10.55;;;;;;;;;;5053430;28;20032;-47
2021/03/31 07:55:49;;;;;;;17.95;11.38;;;;;;;;;;5053478;28;20032;-48
2021/03/31 07:58:16;;;;;;;20.13;12.73;;;17.10;99.90;;;;;;5068049;28;20033;-44
2021/03/31 08:00:48;;;;;;;19.45;12.95;;;17.40;99.90;;;;;;5053464;28;20032;-45
2021/03/31 08:03:19;;;;;;;19.25;12.13;;;17.50;99.90;;;;;;5053464;28;20027;-47
2021/03/31 08:06:01;;;;;;;21.67;11.90;;;;;;;;;;5053342;28;20039;-46
2021/03/31 08:08:27;;;;;;;21.23;10.43;;;;;;;;;;5053135;28;20078;-47
2021/03/31 08:10:54;;;;;;;19.55;11.05;;;17.80;99.90;;;;;;5066068;28;20036;-45
2021/03/31 08:13:32;;;;;;;25.33;13.60;;;18.20;99.90;;;;;;5069661;28;20055;-47
2021/03/31 08:15:59;;;;;;;19.45;11.57;;;;;;;;;;5049041;28;20090;-48
2021/03/31 08:18:26;;;;;;;20.00;11.77;;;;;;;;;;5070372;28;20057;-48
2021/03/31 08:20:53;;;;;;;20.88;12.23;;;18.00;99.90;;;;;;5071185;28;20057;-44
2021/03/31 08:23:38;;;;;;;17.90;12.35;;;;;;;;;;5073199;28;20032;-47
2021/03/31 08:26:23;;;;;;;19.15;12.13;;;;;;;;;;5073216;28;20037;-51
2021/03/31 08:28:48;;;;;;;18.27;11.88;;;19.20;99.90;;;;;;5053193;28;20071;-46
2021/03/31 08:31:19;;;;;;;20.58;12.13;;;;;;;;;;5052911;28;20433;-49
2021/03/31 08:33:45;;;;;;;16.20;11.40;;;;;;;;;;5057455;28;20047;-48
2021/03/31 08:36:11;;;;;;;18.42;11.75;;;;;;;;;;5072877;28;20112;-48
2021/03/31 08:38:37;;;;;;;16.92;11.30;;;20.80;99.90;;;;;;5072909;28;20512;-48
2021/03/31 08:41:17;;;;;;;13.52;9.40;;;20.90;99.90;;;;;;5037619;28;20048;-48
2021/03/31 08:43:45;;;;;;;17.05;10.50;;;;;;;;;;5073303;28;20032;-48
2021/03/31 08:46:12;;;;;;;16.55;10.10;;;;;;;;;;5072970;28;20387;-48
2021/03/31 08:48:40;;;;;;;13.82;10.30;;;21.00;96.20;;;;;;5072181;28;20086;-48
2021/03/31 08:51:13;;;;;;;15.65;9.45;;;21.30;95.90;;;;;;5073024;28;20025;-48
2021/03/31 08:53:39;;;;;;;13.02;9.35;;;20.80;95.10;;;;;;5073065;28;20097;-48
2021/03/31 08:56:05;;;;;;;11.35;8.52;;;20.60;95.10;;;;;;5051534;28;20062;-49
2021/03/31 08:58:31;;;;;;;17.00;10.40;;;21.00;93.70;;;;;;5060046;28;20033;-49
2021/03/31 09:00:59;;;;;;;15.13;9.50;;;;;;;;;;5033840;28;20484;-48
2021/03/31 09:03:29;;;;;;;13.00;8.95;;;21.30;92.30;;;;;;5072833;28;20182;-48
2021/03/31 09:05:55;;;;;;;13.77;9.07;;;;;;;;;;5071622;28;20036;-48
2021/03/31 09:08:23;;;;;;;14.82;9.60;;;22.40;99.90;;;;;;5053763;28;20044;-48
2021/03/31 09:10:57;;;;;;;13.60;9.10;;;22.40;91.70;;;;;;5073662;28;20452;-49
2021/03/31 09:13:25;;;;;;;15.43;10.05;;;22.50;92.10;;;;;;5058016;28;20134;-48
2021/03/31 09:15:57;;;;;;;14.00;9.25;;;;;;;;;;5076674;28;20117;-48
2021/03/31 09:18:24;;;;;;;14.02;8.93;;;;;;;;;;5074923;28;20503;-48
2021/03/31 09:20:50;;;;;;;14.52;9.02;;;;;;;;;;5076461;28;20062;-48
2021/03/31 09:23:20;;;;;;;14.68;8.65;;;;;;;;;;5076266;28;20116;-48
2021/03/31 09:25:58;;;;;;;12.65;8.38;;;23.40;79.90;;;;;;5076251;28;20090;-48
2021/03/31 09:28:24;;;;;;;14.32;8.63;;;23.70;79.10;;;;;;5070901;28;20075;-48
2021/03/31 09:30:53;;;;;;;13.48;8.85;;;23.70;78.00;;;;;;5057236;28;20479;-46
2021/03/31 09:33:26;;;;;;;12.68;8.05;;;24.10;77.50;;;;;;5057128;28;20058;-46
2021/03/31 09:35:53;;;;;;;11.57;7.88;;;24.00;78.00;;;;;;5076153;28;20396;-48
2021/03/31 09:38:28;;;;;;;14.43;7.75;;;24.40;77.60;;;;;;5076004;28;20145;-55
2021/03/31 09:41:01;;;;;;;11.57;7.28;;;24.30;76.40;;;;;;5075961;28;20440;-46
2021/03/31 09:43:28;;;;;;;9.30;5.82;;;24.60;72.30;;;;;;5074457;28;20044;-47
2021/03/31 09:45:54;;;;;;;8.90;4.90;;;24.30;70.30;;;;;;5075694;28;20403;-48
2021/03/31 09:48:20;;;;;;;8.70;4.97;;;24.70;69.60;;;;;;5075547;28;20032;-47
2021/03/31 09:50:47;;;;;;;10.10;6.72;;;25.00;68.00;;;;;;5057158;28;20044;-49
2021/03/31 09:53:13;;;;;;;10.32;6.32;;;25.40;73.90;;;;;;5075838;28;20059;-49
2021/03/31 09:55:39;;;;;;;10.10;5.93;;;25.40;93.50;;;;;;5075427;28;20071;-47
2021/03/31 09:58:05;;;;;;;9.95;6.53;;;25.50;92.40;;;;;;5075613;28;20448;-48
2021/03/31 10:00:35;;;;;;;10.50;6.25;;;25.50;77.00;;;;;;5075347;28;20043;-46
2021/03/31 10:03:04;;;;;;;9.82;6.55;;;25.50;82.90;;;;;;5075728;28;20115;-48
2021/03/31 10:05:32;;;;;;;11.35;7.20;;;25.80;89.00;;;;;;5075278;28;20036;-48
2021/03/31 10:08:04;;;;;;;11.15;7.55;;;25.20;88.70;;;;;;5075404;28;20029;-48
2021/03/31 10:11:08;;;;;;;10.38;6.95;;;25.40;88.60;;;;;;5075603;28;20107;-47
2021/03/31 10:13:35;;;;;;;10.23;7.13;;;24.80;88.20;;;;;;5011322;28;20038;-47
2021/03/31 10:16:04;;;;;;;7.45;6.20;;;25.30;88.90;;;;;;5011523;28;20076;-48
2021/03/31 10:18:32;;;;;;;10.98;7.00;;;25.20;86.80;;;;;;4994873;28;20042;-47
2021/03/31 10:20:59;;;;;;;9.63;6.88;;;;;;;;;;5011948;28;20029;-46
2021/03/31 10:23:30;;;;;;;11.52;6.80;;;26.00;95.30;;;;;;5012660;28;20046;-47
2021/03/31 10:26:20;;;;;;;14.48;6.57;;;26.00;70.00;;;;;;5013192;28;20121;-47
2021/03/31 10:28:47;;;;;;;10.15;6.10;;;26.00;69.40;;;;;;4996329;28;20050;-47
2021/03/31 10:31:24;;;;;;;10.68;4.95;;;25.50;67.90;;;;;;5013089;28;20111;-47
2021/03/31 10:33:50;;;;;;;8.43;4.72;;;25.20;68.20;;;;;;4996546;28;20148;-48
2021/03/31 10:50:24;;;;;;;6.47;4.25;;;26.10;65.50;;;;;;5054211;28;20041;-50
2021/03/31 10:52:54;;;;;;;7.43;4.50;;;25.90;64.00;;;;;;5036154;28;20045;-47
2021/03/31 10:55:20;;;;;;;6.53;4.80;;;26.30;64.20;;;;;;5054478;28;20029;-49
2021/03/31 10:57:45;;;;;;;6.53;5.05;;;26.10;66.40;;;;;;5054415;28;20103;-49
2021/03/31 11:00:12;;;;;;;7.50;5.13;;;25.90;66.20;;;;;;5054449;28;20029;-49
2021/03/31 11:02:38;;;;;;;8.00;5.05;;;25.40;65.20;;;;;;5054607;28;20029;-44
2021/03/31 11:05:04;;;;;;;6.35;4.65;;;24.90;82.80;;;;;;5054340;28;20047;-47
2021/03/31 11:07:30;;;;;;;8.23;4.82;;;;;;;;;;5035490;28;20048;-49
2021/03/31 11:09:56;;;;;;;7.60;5.32;;;25.00;68.00;;;;;;5054251;28;20534;-46
2021/03/31 11:12:21;;;;;;;9.10;5.03;;;24.90;90.70;;;;;;5053877;28;20032;-48
2021/03/31 11:14:48;;;;;;;7.28;4.60;;;;;;;;;;5054143;28;20025;-50
2021/03/31 11:28:03;;;;;;;4.50;3.10;;;23.40;96.80;;;;;;5011781;28;20048;-46
2021/03/31 11:30:29;;;;;;;7.13;3.45;;;23.40;69.80;;;;;;4979297;28;20046;-48
2021/03/31 11:32:55;;;;;;;5.53;3.05;;;23.40;67.00;;;;;;5011967;28;20084;-48
2021/03/31 11:35:21;;;;;;;4.38;2.80;;;23.70;66.20;;;;;;4978462;28;20073;-47
2021/03/31 11:37:46;;;;;;;4.97;3.00;;;24.40;66.10;;;;;;5012026;28;20068;-45
2021/03/31 11:40:12;;;;;;;6.55;3.60;;;25.00;66.90;;;;;;5011852;28;20033;-47
2021/03/31 11:42:38;;;;;;;6.00;3.50;;;25.00;91.70;;;;;;4978829;28;20531;-47
2021/03/31 11:45:05;;;;;;;6.47;3.25;;;;;;;;;;5011878;28;20052;-46
2021/03/31 11:47:30;;;;;;;6.70;3.22;;;26.10;94.20;;;;;;4979117;28;20042;-46
2021/03/31 11:49:56;;;;;;;5.13;2.85;;;26.10;65.20;;;;;;5011495;28;20492;-51
2021/03/31 11:52:22;;;;;;;3.78;2.05;;;25.70;63.90;;;;;;4978990;28;20535;-46
2021/03/31 11:54:48;;;;;;;5.22;2.92;;;24.80;62.00;;;;;;5015495;28;20038;-46
2021/03/31 11:57:14;;;;;;;3.85;1.98;;;;;;;;;;5053250;28;20043;-50
2021/03/31 11:59:40;;;;;;;4.78;2.33;;;;;;;;;;5051319;28;20037;-45
2021/03/31 12:02:06;;;;;;;5.50;2.15;;;;;;;;;;5053264;28;20033;-49
2021/03/31 12:04:33;;;;;;;3.95;2.97;;;;;;;;;;5053073;28;20064;-49
2021/03/31 12:07:00;;;;;;;3.95;2.35;;;;;;;;;;5053525;28;20029;-50
2021/03/31 12:09:26;;;;;;;4.90;2.50;;;;;;;;;;5053175;28;20110;-48
2021/03/31 12:11:52;;;;;;;5.22;2.67;;;;;;;;;;5053068;28;20091;-49
2021/03/31 12:14:18;;;;;;;4.07;2.10;;;;;;;;;;5051874;28;20411;-49
2021/03/31 12:16:44;;;;;;;3.85;2.05;;;;;;;;;;5053094;28;20032;-47
2021/03/31 12:19:10;;;;;;;3.10;2.25;;;;;;;;;;5052986;28;20489;-50
2021/03/31 12:21:36;;;;;;;3.67;2.25;;;25.90;82.00;;;;;;5053253;28;20032;-47
2021/03/31 12:24:02;;;;;;;2.90;2.15;;;26.00;81.90;;;;;;5053012;28;20090;-50
2021/03/31 12:26:28;;;;;;;3.75;2.30;;;26.30;62.30;;;;;;5053125;28;20037;-49
2021/03/31 12:28:57;;;;;;;3.55;2.00;;;25.70;60.90;;;;;;5034329;28;20497;-45
2021/03/31 12:31:23;;;;;;;4.13;2.17;;;26.20;62.70;;;;;;5053111;28;20064;-48
2021/03/31 12:33:49;;;;;;;4.60;2.40;;;26.70;63.20;;;;;;5053085;28;20065;-49
2021/03/31 12:36:14;;;;;;;4.60;2.33;;;26.30;60.70;;;;;;5052844;28;20029;-47
2021/03/31 12:38:41;;;;;;;3.45;2.28;;;25.90;61.80;;;;;;5050940;28;20087;-48
2021/03/31 12:41:08;;;;;;;4.43;2.58;;;;;;;;;;5052913;28;20033;-45
2021/03/31 12:43:34;;;;;;;2.78;2.05;;;;;;;;;;5052938;28;20460;-47
2021/03/31 12:46:00;;;;;;;3.28;2.22;;;23.00;94.30;;;;;;5053557;28;20447;-46
2021/03/31 12:48:27;;;;;;;5.25;2.63;;;22.60;66.50;;;;;;5056838;28;20074;-47
2021/03/31 12:50:57;;;;;;;3.42;2.20;;;22.60;85.50;;;;;;5056861;28;20036;-47
2021/03/31 12:53:37;;;;;;;4.47;2.50;;;22.90;82.80;;;;;;5056781;28;20059;-49
2021/03/31 12:56:03;;;;;;;3.70;2.50;;;22.60;83.50;;;;;;5056472;28;20033;-49
2021/03/31 12:58:29;;;;;;;12.98;3.50;;;23.20;87.90;;;;;;5004936;28;20045;-47
2021/03/31 13:01:00;;;;;;;4.47;2.80;;;;;;;;;;5076028;28;20087;-49
2021/03/31 13:03:26;;;;;;;3.60;2.30;;;24.10;96.30;;;;;;5058759;28;20049;-48
2021/03/31 13:05:52;;;;;;;4.07;2.60;;;24.60;93.10;;;;;;5075975;28;20024;-47
2021/03/31 13:08:17;;;;;;;3.85;2.55;;;24.90;90.10;;;;;;5074652;28;20487;-44
2021/03/31 13:10:45;;;;;;;4.32;2.63;;;;;;;;;;5056783;28;20048;-49
2021/03/31 13:13:24;;;;;;;4.50;2.53;;;;;;;;;;5073842;28;20048;-49
2021/03/31 13:31:42;;;;;;;4.55;3.00;;;;;;;;;;5014250;28;20041;-49
2021/03/31 13:34:16;;;;;;;4.05;2.63;;;;;;;;;;5013821;28;20050;-45
2021/03/31 13:39:36;;;;;;;7.93;3.17;;;;;;;;;;4974917;28;20037;-48
2021/03/31 13:42:03;;;;;;;4.25;2.53;;;26.40;83.70;;;;;;4974709;28;20051;-50
2021/03/31 13:44:29;;;;;;;4.13;2.67;;;26.30;62.50;;;;;;4941486;28;20154;-49
2021/03/31 13:47:00;;;;;;;3.55;2.75;;;26.10;62.10;;;;;;4950743;28;20098;-49
2021/03/31 13:55:15;;;;;;;7.05;3.40;;;26.80;60.60;;;;;;4947947;29;20047;-46
2021/03/31 13:57:53;;;;;;;2.55;2.33;;;26.50;60.50;;;;;;4946399;28;20422;-49
2021/03/31 14:00:26;;;;;;;5.18;2.95;;;26.20;62.00;;;;;;4935818;29;20462;-46
2021/03/31 14:02:52;;;;;;;5.63;3.75;;;;;;;;;;4919129;29;20395;-52
2021/03/31 14:05:21;;;;;;;6.45;3.05;;;24.80;61.20;;;;;;4912573;28;20129;-50
2021/03/31 14:07:46;;;;;;;6.90;2.88;;;25.00;61.60;;;;;;4974343;28;20043;-43
2021/03/31 14:10:14;;;;;;;5.15;2.80;;;25.30;63.60;;;;;;4974185;28;20061;-47
2021/03/31 14:12:40;;;;;;;5.47;2.70;;;25.60;60.90;;;;;;4974358;28;20043;-58